Latest Weather Observations for Ballina

IDN60801

Issued at 10:52 am EST Sunday 16 June 2019 (issued every 10 minutes, with the page automatically refreshed every 10 minutes)

About weather observations | Map of weather stations | Latest weather observations for NSW | Other Formats
Station Details ID: 058198 Name: BALLINA AIRPORT AWS Lat: -28.84 Lon: 153.56 Height: 1.3 m
Data from the previous 72 hours. | See also: Recent months at Ballina
Date/Time
EST
Temp
°C
App
Temp
°C
Dew
Point
°C
Rel
Hum
%
Delta-T
°C
Wind Press
QNH
hPa
Press
MSL
hPa
Rain since
9am
mm
Dir  Spd
km/h
Gust
km/h
Spd
kts
Gust
kts
16/10:30am 19.9 21.0 17.9 88 1.2 NW 9 13 5 7 1019.2 1019.2 0.0
16/10:04am 19.6 20.5 17.6 88 1.2 WNW 9 13 5 7 1019.3 1019.3 0.0
16/10:00am 19.9 21.5 18.2 90 1.1 WNW 7 9 4 5 1019.3 1019.3 0.0
16/09:30am 18.7 18.9 17.7 94 0.6 W 13 17 7 9 1019.7 1019.7 0.0
16/09:00am 18.0 19.3 17.0 94 0.6 NW 6 7 3 4 1019.4 1019.4 31.4
16/08:30am 17.2 19.1 16.6 96 0.4 W 2 9 1 5 1019.2 1019.2 31.4
16/08:00am 16.4 17.2 15.9 97 0.3 WNW 6 7 3 4 1019.3 1019.3 31.2
16/07:30am 16.2 17.3 15.7 97 0.3 W 4 9 2 5 1019.1 1019.1 31.2
16/07:00am 16.3 16.6 16.0 98 0.2 W 9 15 5 8 1019.2 1019.2 31.2
16/06:49am 16.1 16.7 15.8 98 0.2 WNW 7 11 4 6 1019.1 1019.1 31.2
16/06:30am 16.1 16.9 15.8 98 0.2 WNW 6 9 3 5 1018.6 1018.6 31.0
16/06:19am 15.9 16.0 15.6 98 0.2 W 9 11 5 6 1018.6 1018.6 29.0
16/06:00am 15.9 17.3 15.4 97 0.3 NNW 2 6 1 3 1018.2 1018.2 28.2
16/05:30am 16.0 16.2 15.7 98 0.2 SW 9 13 5 7 1017.9 1017.9 28.2
16/05:00am 15.7 17.5 15.4 98 0.2 CALM 0 0 0 0 1017.6 1017.6 28.2
16/04:30am 15.7 17.5 15.4 98 0.2 CALM 0 0 0 0 1017.6 1017.6 28.2
16/04:00am 15.9 17.7 15.6 98 0.2 CALM 0 7 0 4 1017.6 1017.6 28.2
16/03:30am 16.4 17.3 16.1 98 0.2 NNW 6 9 3 5 1017.8 1017.8 28.2
16/03:00am 16.2 16.5 15.9 98 0.2 W 9 13 5 7 1018.0 1018.0 28.2
16/02:30am 16.0 17.5 15.7 98 0.2 W 2 7 1 4 1018.1 1018.1 28.2
16/02:04am 16.0 16.6 15.7 98 0.2 W 7 9 4 5 1018.2 1018.2 28.2
16/02:00am 16.0 16.6 15.7 98 0.2 W 7 9 4 5 1018.2 1018.2 28.2
16/01:55am 15.9 16.6 15.6 98 0.2 W 6 9 3 5 1018.2 1018.2 28.2
16/01:30am 15.9 17.7 15.6 98 0.2 CALM 0 0 0 0 1018.3 1018.3 28.2
16/01:18am 16.1 18.0 15.8 98 0.2 CALM 0 0 0 0 1018.4 1018.4 28.2
16/01:01am 16.2 18.2 15.9 98 0.2 CALM 0 0 0 0 1018.4 1018.4 28.2
16/01:00am 16.2 18.2 15.9 98 0.2 CALM 0 0 0 0 1018.4 1018.4 28.2
16/12:43am 16.1 18.0 15.8 98 0.2 CALM 0 0 0 0 1018.4 1018.4 28.2
16/12:30am 16.3 18.3 16.0 98 0.2 CALM 0 0 0 0 1018.5 1018.5 28.2
16/12:00am 16.6 18.7 16.3 98 0.2 CALM 0 0 0 0 1018.7 1018.7 28.2
 
Date/Time
EST
Temp
°C
App
Temp
°C
Dew
Point
°C
Rel
Hum
%
Delta-T
°C
Wind Press
QNH
hPa
Press
MSL
hPa
Rain since
9am
mm
Dir  Spd
km/h
Gust
km/h
Spd
kts
Gust
kts
15/11:30pm 17.0 18.1 16.7 98 0.2 W 6 7 3 4 1019.1 1019.1 28.2
15/11:12pm 17.0 17.6 16.7 98 0.2 WSW 9 11 5 6 1018.9 1018.9 28.2
15/11:00pm 17.2 18.4 16.9 98 0.2 NNW 6 11 3 6 1018.7 1018.7 28.2
15/10:43pm 17.4 18.5 17.1 98 0.2 WSW 7 13 4 7 1019.1 1019.1 28.0
15/10:30pm 17.7 17.8 17.4 98 0.2 SSW 13 19 7 10 1018.7 1018.7 27.6
15/10:25pm 17.8 17.9 17.5 98 0.2 SW 13 20 7 11 1018.9 1018.9 27.2
15/10:02pm 17.8 18.7 17.5 98 0.2 SSW 9 9 5 5 1019.0 1019.0 26.4
15/10:00pm 17.8 18.7 17.5 98 0.2 SSW 9 9 5 5 1019.0 1019.0 26.4
15/09:30pm 17.5 16.7 17.0 97 0.3 W 17 32 9 17 1018.7 1018.7 10.8
15/09:29pm 17.3 16.8 16.8 97 0.3 W 15 24 8 13 1018.6 1018.6 9.4
15/09:23pm 17.2 18.3 16.7 97 0.3 WSW 6 13 3 7 1018.4 1018.4 3.4
15/09:00pm 16.9 19.1 16.4 97 0.3 CALM 0 0 0 0 1018.5 1018.5 2.6
15/08:30pm 16.9 19.1 16.4 97 0.3 CALM 0 0 0 0 1018.7 1018.7 2.6
15/08:00pm 16.6 18.6 16.1 97 0.3 CALM 0 0 0 0 1018.7 1018.7 2.6
15/07:42pm 16.5 18.5 16.0 97 0.3 CALM 0 0 0 0 1018.7 1018.7 2.6
15/07:30pm 16.4 18.4 15.9 97 0.3 CALM 0 0 0 0 1018.7 1018.7 2.6
15/07:00pm 16.2 18.1 15.7 97 0.3 CALM 0 0 0 0 1018.3 1018.3 2.6
15/06:30pm 16.1 17.8 15.3 95 0.5 CALM 0 0 0 0 1017.8 1017.8 2.6
15/06:00pm 16.5 17.9 15.5 94 0.6 SSW 2 7 1 4 1017.7 1017.7 2.6
15/05:30pm 17.2 19.3 16.2 94 0.6 CALM 0 0 0 0 1017.5 1017.5 2.6
15/05:25pm 17.3 19.4 16.2 93 0.7 CALM 0 0 0 0 1017.5 1017.5 2.6
15/05:00pm 18.4 20.3 16.7 90 1.0 SSE 2 7 1 4 1017.2 1017.2 2.6
15/04:30pm 19.1 20.3 16.9 87 1.3 SSE 6 7 3 4 1017.0 1017.0 2.6
15/04:00pm 19.9 21.7 17.3 85 1.6 S 4 7 2 4 1016.8 1016.8 2.6
15/03:30pm 19.9 21.4 17.7 87 1.4 SE 6 9 3 5 1016.7 1016.7 2.6
15/03:00pm 19.6 21.1 17.6 88 1.2 S 6 7 3 4 1016.8 1016.8 2.6
15/02:30pm 19.6 20.6 17.7 89 1.2 SSE 9 13 5 7 1016.9 1016.9 2.6
15/02:03pm 19.7 21.5 18.4 92 0.8 S 6 11 3 6 1017.1 1017.1 2.6
15/02:00pm 19.5 21.5 17.8 90 1.0 SSW 4 7 2 4 1017.1 1017.1 2.6
15/01:40pm 19.7 21.1 17.3 86 1.5 SSW 6 7 3 4 1017.4 1017.4 1.2
15/01:30pm 19.9 21.3 17.3 85 1.6 SW 6 9 3 5 1017.3 1017.3 0.8
15/01:00pm 19.8 21.2 17.4 86 1.5 SSW 6 7 3 4 1017.5 1017.5 0.8
15/12:30pm 19.9 21.1 17.3 85 1.6 SW 7 11 4 6 1017.9 1017.9 0.8
15/12:29pm 20.0 21.3 17.6 86 1.5 SW 7 9 4 5 1017.9 1017.9 0.8
15/12:11pm 20.2 21.5 17.6 85 1.6 SW 7 9 4 5 1018.1 1018.1 0.8
15/12:03pm 20.2 21.5 17.6 85 1.6 SW 7 9 4 5 1018.2 1018.2 0.8
15/12:00pm 20.3 21.7 17.9 86 1.5 WSW 7 11 4 6 1018.2 1018.2 0.8
15/11:32am 20.5 21.8 18.4 88 1.3 WNW 9 11 5 6 1018.7 1018.7 0.8
15/11:30am 20.4 21.6 18.3 88 1.3 WNW 9 11 5 6 1018.7 1018.7 0.8
15/11:00am 19.2 20.3 17.9 92 0.8 WSW 9 13 5 7 1019.2 1019.2 0.8
15/10:30am 18.6 19.5 17.6 94 0.6 W 9 11 5 6 1019.5 1019.5 0.8
15/10:00am 18.6 19.5 17.6 94 0.6 WSW 9 11 5 6 1019.5 1019.5 0.8
15/09:35am 18.2 19.8 17.0 93 0.7 W 4 7 2 4 1019.6 1019.6 0.6
15/09:30am 18.1 19.2 17.0 93 0.7 W 7 11 4 6 1019.8 1019.8 0.6
15/09:19am 18.1 19.2 17.0 93 0.7 W 7 11 4 6 1019.8 1019.8 0.4
15/09:00am 18.1 19.4 17.0 93 0.7 WNW 6 7 3 4 1019.8 1019.8 0.0
15/08:30am 18.0 18.6 16.9 93 0.7 W 9 15 5 8 1019.7 1019.7 0.0
15/08:00am 17.7 18.3 16.7 94 0.6 W 9 13 5 7 1019.5 1019.5 0.0
15/07:30am 17.0 18.8 16.5 97 0.3 W 2 7 1 4 1018.9 1018.9 0.0
15/07:15am 16.4 17.2 15.9 97 0.3 W 6 7 3 4 1018.8 1018.8 0.0
15/07:00am 15.6 15.9 15.0 96 0.3 W 7 9 4 5 1018.7 1018.7 0.0
15/06:57am 15.4 15.6 14.8 96 0.3 W 7 9 4 5 1018.7 1018.7 0.0
15/06:30am 16.1 16.8 15.5 96 0.3 W 6 7 3 4 1018.6 1018.6 0.0
15/06:00am 16.5 16.0 16.0 97 0.3 W 13 17 7 9 1018.3 1018.3 0.0
15/05:41am 16.5 16.4 16.0 97 0.3 W 11 13 6 7 1017.9 1017.9 0.0
15/05:30am 16.6 16.5 16.1 97 0.3 WSW 11 13 6 7 1017.8 1017.8 0.0
15/05:23am 16.4 16.7 15.9 97 0.3 W 9 13 5 7 1017.7 1017.7 0.0
15/05:00am 16.2 17.7 15.7 97 0.3 W 2 6 1 3 1017.6 1017.6 0.0
15/04:53am 16.1 17.2 15.6 97 0.3 W 4 6 2 3 1017.5 1017.5 0.0
15/04:33am 16.3 16.1 15.8 97 0.3 W 11 13 6 7 1017.4 1017.4 0.0
15/04:30am 16.3 16.1 15.7 96 0.4 W 11 13 6 7 1017.4 1017.4 0.0
15/04:21am 16.2 16.0 15.6 96 0.3 W 11 13 6 7 1017.4 1017.4 0.0
15/04:00am 17.1 18.0 16.5 96 0.4 SW 7 9 4 5 1017.3 1017.3 0.0
15/03:30am 17.3 18.2 16.7 96 0.4 WSW 7 9 4 5 1017.3 1017.3 0.0
15/03:00am 17.6 18.3 17.0 96 0.4 SSW 9 13 5 7 1017.3 1017.3 0.0
15/02:30am 17.3 18.4 16.5 95 0.5 NNE 6 7 3 4 1017.3 1017.3 0.0
15/02:00am 17.5 18.6 16.7 95 0.5 W 6 9 3 5 1017.6 1017.6 0.0
15/01:30am 17.7 18.7 16.9 95 0.5 W 7 9 4 5 1017.9 1017.9 0.0
15/01:00am 17.5 18.4 16.7 95 0.5 W 7 7 4 4 1018.1 1018.1 0.0
15/12:30am 17.1 17.1 16.3 95 0.5 W 11 13 6 7 1018.0 1018.0 0.0
15/12:00am 17.7 19.9 16.6 93 0.7 CALM 0 0 0 0 1018.4 1018.4 0.0
 
Date/Time
EST
Temp
°C
App
Temp
°C
Dew
Point
°C
Rel
Hum
%
Delta-T
°C
Wind Press
QNH
hPa
Press
MSL
hPa
Rain since
9am
mm
Dir  Spd
km/h
Gust
km/h
Spd
kts
Gust
kts
14/11:30pm 18.4 19.7 17.1 92 0.8 SSE 6 9 3 5 1018.6 1018.6 0.0
14/11:00pm 18.4 19.0 16.9 91 0.9 S 9 11 5 6 1018.8 1018.8 0.0
14/10:30pm 18.8 18.3 16.8 88 1.2 S 15 20 8 11 1018.9 1018.9 0.0
14/10:00pm 17.9 19.1 16.8 93 0.7 WNW 6 11 3 6 1018.7 1018.7 0.0
14/09:30pm 18.0 18.9 16.7 92 0.8 NNW 7 9 4 5 1018.7 1018.7 0.0
14/09:00pm 18.2 20.5 16.7 91 0.9 CALM 0 0 0 0 1018.8 1018.8 0.0
14/08:30pm 18.0 20.3 16.7 92 0.8 CALM 0 0 0 0 1018.9 1018.9 0.0
14/08:00pm 18.1 19.6 16.6 91 0.9 WSW 4 7 2 4 1018.6 1018.6 0.0
14/07:30pm 17.9 19.4 16.6 92 0.8 WSW 4 13 2 7 1018.2 1018.2 0.0
14/07:00pm 17.8 19.9 16.3 91 0.9 CALM 0 2 0 1 1017.8 1017.8 0.0
14/06:30pm 18.2 20.4 16.5 90 1.0 CALM 0 0 0 0 1017.8 1017.8 0.0
14/06:00pm 18.9 20.9 16.0 83 1.7 CALM 0 0 0 0 1017.6 1017.6 0.0
14/05:30pm 19.8 20.6 16.3 80 2.1 ESE 7 11 4 6 1017.3 1017.3 0.0
14/05:00pm 20.2 20.6 16.2 78 2.4 SE 9 13 5 7 1017.1 1017.1 0.0
14/04:30pm 20.9 21.1 16.7 77 2.5 SE 11 13 6 7 1016.9 1016.9 0.0
14/04:00pm 21.3 21.1 16.7 75 2.8 SSE 13 15 7 8 1016.8 1016.8 0.0
14/03:30pm 21.5 21.3 16.7 74 2.9 SSE 13 17 7 9 1016.6 1016.6 0.0
14/03:00pm 21.6 21.1 17.0 75 2.8 SSE 15 19 8 10 1016.6 1016.6 0.0
14/02:30pm 21.9 21.0 16.8 73 3.1 SSE 17 20 9 11 1016.6 1016.6 0.0
14/02:00pm 21.8 21.0 17.0 74 2.9 SSE 17 20 9 11 1016.6 1016.6 0.0
14/01:30pm 22.3 21.5 17.2 73 3.1 SSE 17 26 9 14 1016.8 1016.8 0.0
14/01:00pm 22.6 21.6 17.5 73 3.1 S 19 24 10 13 1017.1 1017.1 0.0
14/12:30pm 23.1 22.4 17.3 70 3.6 S 17 26 9 14 1017.4 1017.4 0.0
14/12:00pm 22.8 22.5 17.3 71 3.4 S 15 20 8 11 1017.7 1017.7 0.0
14/11:30am 23.7 23.2 17.0 66 4.1 SSW 15 20 8 11 1017.9 1017.9 0.0
14/11:00am 23.1 21.8 13.8 55 5.4 SW 13 20 7 11 1018.2 1018.2 0.0
14/10:30am 21.9 19.7 13.3 58 4.9 WSW 17 22 9 12 1018.7 1018.7 0.0
14/10:00am 21.2 19.2 13.9 63 4.2 SSW 17 24 9 13 1018.8 1018.8 0.0
14/09:30am 21.9 22.2 15.0 65 4.1 S 7 11 4 6 1018.6 1018.6 0.0
14/09:00am 20.8 21.2 15.4 71 3.2 SSW 7 9 4 5 1018.5 1018.5 0.0
14/08:30am 18.5 20.5 15.9 85 1.5 CALM 0 6 0 3 1018.1 1018.1 0.0
14/08:00am 17.0 18.7 15.3 90 1.0 CALM 0 0 0 0 1018.0 1018.0 0.0
14/07:30am 14.3 15.4 13.5 95 0.4 CALM 0 0 0 0 1017.8 1017.8 0.0
14/07:00am 13.9 14.9 13.1 95 0.4 CALM 0 0 0 0 1017.6 1017.6 0.0
14/06:30am 13.4 14.2 12.5 94 0.5 CALM 0 0 0 0 1017.1 1017.1 0.0
14/06:00am 13.9 14.9 13.1 95 0.4 CALM 0 0 0 0 1016.8 1016.8 0.0
14/05:30am 13.7 14.6 12.8 94 0.5 CALM 0 0 0 0 1016.5 1016.5 0.0
14/05:00am 13.6 14.4 12.7 94 0.5 CALM 0 0 0 0 1016.2 1016.2 0.0
14/04:30am 13.8 14.7 12.9 94 0.5 CALM 0 0 0 0 1016.0 1016.0 0.0
14/04:00am 13.9 14.5 13.1 95 0.4 NW 2 7 1 4 1015.9 1015.9 0.0
14/03:30am 13.4 14.2 12.5 94 0.5 CALM 0 0 0 0 1015.9 1015.9 0.0
14/03:00am 13.2 14.0 12.4 95 0.4 CALM 0 4 0 2 1016.1 1016.1 0.0
14/02:30am 12.9 13.6 12.1 95 0.4 CALM 0 0 0 0 1016.2 1016.2 0.0
14/02:00am 13.2 14.0 12.6 96 0.3 CALM 0 6 0 3 1016.2 1016.2 0.0
14/01:30am 12.8 13.4 12.0 95 0.4 CALM 0 0 0 0 1016.3 1016.3 0.0
14/01:00am 12.7 13.3 11.8 94 0.5 CALM 0 0 0 0 1016.6 1016.6 0.0
14/12:30am 13.0 13.7 12.1 94 0.5 CALM 0 0 0 0 1016.9 1016.9 0.0
14/12:00am 13.5 14.3 12.4 93 0.6 CALM 0 0 0 0 1017.2 1017.2 0.0
 
Date/Time
EST
Temp
°C
App
Temp
°C
Dew
Point
°C
Rel
Hum
%
Delta-T
°C
Wind Press
QNH
hPa
Press
MSL
hPa
Rain since
9am
mm
Dir  Spd
km/h
Gust
km/h
Spd
kts
Gust
kts
13/11:30pm 14.8 15.9 13.5 92 0.7 CALM 0 0 0 0 1017.5 1017.5 0.0
13/11:00pm 14.8 16.0 13.7 93 0.6 CALM 0 0 0 0 1017.7 1017.7 0.0
13/10:30pm 13.9 14.7 12.6 92 0.7 CALM 0 0 0 0 1017.6 1017.6 0.0
13/10:00pm 13.8 14.4 11.8 88 1.1 CALM 0 0 0 0 1017.8 1017.8 0.0
13/09:30pm 14.7 15.6 12.9 89 1.0 CALM 0 0 0 0 1018.0 1018.0 0.0
13/09:00pm 14.8 14.4 13.0 89 1.0 N 7 9 4 5 1017.8 1017.8 0.0
13/08:30pm 16.0 17.2 13.8 87 1.2 CALM 0 0 0 0 1017.7 1017.7 0.0
13/08:00pm 17.1 17.1 14.2 83 1.7 N 7 9 4 5 1017.1 1017.1 0.0
13/07:30pm 17.5 17.1 14.0 80 2.0 N 9 11 5 6 1017.0 1017.0 0.0
13/07:00pm 17.8 17.0 14.1 79 2.1 N 11 13 6 7 1017.1 1017.1 0.0
13/06:30pm 18.2 17.2 14.5 79 2.1 N 13 17 7 9 1016.6 1016.6 0.0
13/06:00pm 18.2 18.0 14.7 80 2.0 N 9 11 5 6 1016.7 1016.7 0.0
13/05:30pm 18.8 19.3 15.5 81 1.9 N 7 9 4 5 1016.9 1016.9 0.0
13/05:00pm 20.0 19.8 14.6 71 3.1 NNE 9 13 5 7 1016.2 1016.2 0.0
13/04:30pm 21.2 20.8 14.1 64 4.1 NNE 9 15 5 8 1016.1 1016.1 0.0
13/04:00pm 22.8 21.5 13.6 56 5.3 N 13 17 7 9 1016.0 1016.0 0.0
13/03:30pm 23.3 22.1 14.0 56 5.4 NNW 13 17 7 9 1016.0 1016.0 0.0
13/03:00pm 23.7 22.5 14.1 55 5.6 NNW 13 20 7 11 1016.0 1016.0 0.0
13/02:30pm 23.6 22.0 13.8 54 5.7 NNW 15 22 8 12 1016.1 1016.1 0.0
13/02:00pm 23.6 22.3 13.8 54 5.7 NW 13 19 7 10 1016.5 1016.5 0.0
13/01:30pm 23.2 22.0 13.9 56 5.4 NW 13 19 7 10 1016.9 1016.9 0.0
13/01:00pm 22.9 21.4 14.2 58 5.1 NNW 15 22 8 12 1017.1 1017.1 0.0
13/12:30pm 23.2 22.8 14.2 57 5.3 NW 9 17 5 9 1017.8 1017.8 0.0
13/12:00pm 22.8 21.9 13.8 57 5.2 NW 11 17 6 9 1018.1 1018.1 0.0
13/11:30am 22.9 21.1 13.4 55 5.5 NW 15 22 8 12 1018.7 1018.7 0.0
13/11:00am 23.9 24.0 15.4 59 5.1 NNW 9 15 5 8 1019.2 1019.2 0.0

Other formats

Comma delimited format used in spreadsheet applications
http://www.bom.gov.au/fwo/IDN60801/IDN60801.94596.axf

JavaScript Object Notation format (JSON) in row-major order
http://www.bom.gov.au/fwo/IDN60801/IDN60801.94596.json

Data quality

Most of these data are generated automatically and are frequently updated. Quality checks on data are not normally performed. It is possible for incorrect values to appear. Refer to information at About Latest Weather Observations and please check the disclaimer before using these data.